Time;durP1;ratioP1;P1;durP2;ratioP2;P2;SDS_P1;SDS_P2;PMS_P1;PMS_P2;Temp;Humidity;BMP_temperature;BMP_pressure;BME280_temperature;BME280_humidity;BME280_pressure;Samples;Min_cycle;Max_cycle;Signal;HPM_P1;HPM_P2
2022/04/13 00:01:09;;;;;;;0.20;0.10;;;;;;;;;;4178335;28;20516;-31
2022/04/13 00:03:10;;;;;;;0.45;0.20;;;;;;;;;;4178826;28;20453;-33
2022/04/13 00:05:12;;;;;;;0.10;0.10;;;;;;;;;;4180471;28;20060;-33
2022/04/13 00:07:13;;;;;;;1.38;0.10;;;;;;;;;;4180373;28;20049;-33
2022/04/13 00:09:15;;;;;;;0.10;0.10;;;;;;;;;;4179722;28;20060;-36
2022/04/13 00:11:18;;;;;;;0.10;0.10;;;;;;;;;;4180160;28;20111;-32
2022/04/13 00:13:19;;;;;;;0.43;0.13;;;;;;;;;;4180131;28;20052;-32
2022/04/13 00:15:20;;;;;;;0.10;0.10;;;;;;;;;;4178861;28;20501;-34
2022/04/13 00:17:22;;;;;;;0.55;0.22;;;;;;;;;;4180084;28;20055;-32
2022/04/13 00:19:24;;;;;;;0.10;0.10;;;;;;;;;;4179919;28;20118;-33
2022/04/13 00:21:25;;;;;;;0.20;0.10;;;;;;;;;;4179941;28;20087;-36
2022/04/13 00:23:29;;;;;;;0.63;0.20;;;;;;;;;;4179405;28;20052;-34
2022/04/13 00:25:30;;;;;;;0.20;0.10;;;;;;;;;;4180032;28;20060;-38
2022/04/13 00:27:32;;;;;;;0.25;0.15;;;;;;;;;;4180058;28;20500;-36
2022/04/13 00:29:33;;;;;;;0.20;0.20;;;;;;;;;;4178609;28;20065;-32
2022/04/13 00:31:34;;;;;;;0.30;0.10;;;;;;;;;;4179948;28;20057;-34
2022/04/13 00:33:36;;;;;;;0.32;0.13;;;;;;;;;;4180042;28;20049;-36
2022/04/13 00:35:37;;;;;;;0.17;0.10;;;;;;;;;;4180085;28;20056;-35
2022/04/13 00:37:39;;;;;;;0.30;0.20;;;;;;;;;;4179940;28;20053;-31
2022/04/13 00:39:40;;;;;;;0.32;0.17;;;;;;;;;;4177937;28;20401;-33
2022/04/13 00:41:41;;;;;;;0.30;0.20;;;;;;;;;;4179721;28;20064;-33
2022/04/13 00:43:43;;;;;;;0.10;0.10;;;;;;;;;;4179641;28;20382;-36
2022/04/13 00:45:48;;;;;;;0.10;0.10;;;;;;;;;;4180034;28;20103;-37
2022/04/13 00:47:49;;;;;;;0.50;0.20;;;;;;;;;;4179732;28;20052;-36
2022/04/13 00:49:50;;;;;;;0.20;0.05;;;;;;;;;;4178391;28;20547;-34
2022/04/13 00:51:52;;;;;;;0.30;0.20;;;;;;;;;;4179606;28;20057;-36
2022/04/13 00:53:58;;;;;;;0.30;0.10;;;;;;;;;;4179148;28;20106;-36
2022/04/13 00:56:01;;;;;;;0.20;0.10;;;;;;;;;;4179908;28;20098;-35
2022/04/13 00:58:03;;;;;;;0.10;0.10;;;;;;;;;;4179475;28;20480;-36
2022/04/13 01:00:06;;;;;;;0.40;0.20;;;;;;;;;;4179262;28;20106;-34
2022/04/13 01:02:08;;;;;;;0.52;0.13;;;;;;;;;;4179530;28;20489;-33
2022/04/13 01:04:11;;;;;;;0.08;0.08;;;;;;;;;;4177800;28;20416;-37
2022/04/13 01:06:15;;;;;;;0.22;0.22;;;;;;;;;;4178297;28;20057;-38
2022/04/13 01:08:17;;;;;;;0.40;0.10;;;;;;;;;;4177726;28;20499;-36
2022/04/13 01:10:18;;;;;;;0.10;0.10;;;;;;;;;;4179516;28;20405;-35
2022/04/13 01:12:20;;;;;;;0.40;0.10;;;;;;;;;;4179797;28;20056;-38
2022/04/13 01:14:21;;;;;;;1.02;0.10;;;;;;;;;;4179348;28;20514;-38
2022/04/13 01:16:23;;;;;;;0.50;0.17;;;;;;;;;;4178181;28;20331;-34
2022/04/13 01:18:26;;;;;;;0.22;0.10;;;;;;;;;;4161937;28;20068;-32
2022/04/13 01:20:27;;;;;;;0.20;0.10;;;;;;;;;;4177994;28;20057;-33
2022/04/13 01:22:28;;;;;;;0.25;0.10;;;;;;;;;;4179645;28;20057;-36
2022/04/13 01:24:31;;;;;;;0.10;0.10;;;;;;;;;;4178905;28;20630;-34
2022/04/13 01:26:33;;;;;;;0.30;0.10;;;;;;;;;;4179351;28;20543;-33
2022/04/13 01:28:34;;;;;;;0.17;0.10;;;;;;;;;;4179306;28;20101;-35
2022/04/13 01:30:35;;;;;;;0.28;0.10;;;;;;;;;;4179340;28;20520;-35
2022/04/13 01:32:36;;;;;;;0.38;0.20;;;;;;;;;;4179318;28;20041;-33
2022/04/13 01:34:48;;;;;;;0.10;0.10;;;;;;;;;;4178993;28;20053;-34
2022/04/13 01:36:49;;;;;;;0.57;0.20;;;;;;;;;;4177996;28;20060;-35
2022/04/13 01:38:50;;;;;;;0.60;0.20;;;;;;;;;;4178961;28;20504;-35
2022/04/13 01:40:52;;;;;;;0.65;0.20;;;;;;;;;;4179298;28;20110;-34
2022/04/13 01:42:53;;;;;;;0.20;0.10;;;;;;;;;;4179388;28;20079;-32
2022/04/13 01:44:54;;;;;;;0.52;0.20;;;;;;;;;;4179252;28;20064;-33
2022/04/13 01:46:55;;;;;;;0.80;0.10;;;;;;;;;;4179136;28;20061;-35
2022/04/13 01:48:57;;;;;;;0.45;0.20;;;;;;;;;;4178926;28;20057;-36
2022/04/13 01:50:58;;;;;;;0.10;0.10;;;;;;;;;;4179216;28;20389;-33
2022/04/13 01:53:00;;;;;;;0.30;0.10;;;;;;;;;;4179055;28;20049;-33
2022/04/13 01:55:01;;;;;;;0.30;0.20;;;;;;;;;;4178708;28;20049;-34
2022/04/13 01:57:02;;;;;;;0.30;0.20;;;;;;;;;;4179451;28;20061;-33
2022/04/13 01:59:03;;;;;;;0.10;0.10;;;;;;;;;;4178779;28;20052;-31
2022/04/13 02:01:05;;;;;;;0.65;0.20;;;;;;;;;;4177863;28;20563;-35
2022/04/13 02:03:06;;;;;;;0.38;0.20;;;;;;;;;;4178890;28;20636;-32
2022/04/13 02:05:08;;;;;;;0.10;0.10;;;;;;;;;;4178019;28;20052;-31
2022/04/13 02:07:09;;;;;;;0.43;0.25;;;;;;;;;;4178948;28;20110;-34
2022/04/13 02:09:10;;;;;;;0.22;0.15;;;;;;;;;;4178600;28;20060;-37
2022/04/13 02:11:11;;;;;;;0.13;0.10;;;;;;;;;;4179027;28;20091;-35
2022/04/13 02:13:14;;;;;;;1.25;0.20;;;;;;;;;;4178964;28;20044;-35
2022/04/13 02:15:16;;;;;;;0.10;0.10;;;;;;;;;;4180572;28;20091;-35
2022/04/13 02:17:19;;;;;;;0.17;0.10;;;;;;;;;;4180599;28;20057;-33
2022/04/13 02:19:20;;;;;;;0.10;0.10;;;;;;;;;;4181897;28;20053;-36
2022/04/13 02:21:21;;;;;;;0.30;0.20;;;;;;;;;;4182067;28;20131;-35
2022/04/13 02:23:22;;;;;;;0.20;0.10;;;;;;;;;;4181608;28;20103;-35
2022/04/13 02:25:23;;;;;;;0.20;0.20;;;;;;;;;;4182211;28;20151;-35
2022/04/13 02:27:25;;;;;;;0.20;0.10;;;;;;;;;;4181922;28;20057;-34
2022/04/13 02:29:26;;;;;;;0.40;0.20;;;;;;;;;;4181762;28;20562;-33
2022/04/13 02:31:27;;;;;;;0.50;0.10;;;;;;;;;;4181840;28;20562;-37
2022/04/13 02:33:31;;;;;;;0.10;0.10;;;;;;;;;;4181811;28;20053;-37
2022/04/13 02:35:32;;;;;;;0.10;0.10;;;;;;;;;;4181835;28;20056;-36
2022/04/13 02:37:33;;;;;;;0.55;0.10;;;;;;;;;;4181558;28;20049;-36
2022/04/13 02:39:35;;;;;;;0.10;0.10;;;;;;;;;;4181223;28;20098;-34
2022/04/13 02:41:36;;;;;;;0.43;0.15;;;;;;;;;;4181884;28;20057;-34
2022/04/13 02:43:37;;;;;;;0.00;0.00;;;;;;;;;;4181457;28;20480;-34
2022/04/13 02:45:38;;;;;;;0.10;0.10;;;;;;;;;;4181812;28;20079;-32
2022/04/13 02:47:39;;;;;;;0.35;0.10;;;;;;;;;;4180306;28;20162;-35
2022/04/13 02:49:41;;;;;;;0.55;0.20;;;;;;;;;;4181409;28;20049;-37
2022/04/13 02:51:43;;;;;;;0.17;0.10;;;;;;;;;;4180270;28;20196;-35
2022/04/13 02:53:44;;;;;;;0.50;0.20;;;;;;;;;;4181209;28;20049;-36
2022/04/13 02:55:45;;;;;;;0.30;0.10;;;;;;;;;;4181680;28;20251;-34
2022/04/13 02:57:46;;;;;;;0.45;0.13;;;;;;;;;;4181531;28;20435;-34
2022/04/13 02:59:49;;;;;;;0.32;0.10;;;;;;;;;;4181056;28;20091;-33
2022/04/13 03:01:49;;;;;;;0.10;0.10;;;;;;;;;;4181245;28;20056;-35
2022/04/13 03:03:50;;;;;;;0.38;0.15;;;;;;;;;;4181438;28;20057;-31
2022/04/13 03:05:52;;;;;;;0.10;0.10;;;;;;;;;;4180082;28;20086;-32
2022/04/13 03:07:53;;;;;;;0.20;0.10;;;;;;;;;;4163515;28;20061;-31
2022/04/13 03:09:54;;;;;;;0.30;0.20;;;;;;;;;;4180975;28;20057;-32
2022/04/13 03:11:55;;;;;;;0.17;0.10;;;;;;;;;;4181280;28;20559;-37
2022/04/13 03:13:56;;;;;;;0.45;0.20;;;;;;;;;;4181264;28;20086;-33
2022/04/13 03:15:57;;;;;;;0.30;0.20;;;;;;;;;;4178198;28;20057;-35
2022/04/13 03:17:58;;;;;;;0.20;0.15;;;;;;;;;;4179564;28;20064;-34
2022/04/13 03:20:00;;;;;;;0.43;0.10;;;;;;;;;;4179418;28;20059;-33
2022/04/13 03:22:01;;;;;;;1.08;0.20;;;;;;;;;;4179195;28;20079;-35
2022/04/13 03:24:02;;;;;;;0.50;0.20;;;;;;;;;;4178428;28;20466;-34
2022/04/13 03:26:03;;;;;;;0.43;0.20;;;;;;;;;;4178891;28;20061;-35
2022/04/13 03:28:04;;;;;;;0.40;0.30;;;;;;;;;;4160720;28;20453;-35
2022/04/13 03:30:06;;;;;;;0.25;0.20;;;;;;;;;;4178921;28;20091;-36
2022/04/13 03:32:08;;;;;;;0.22;0.20;;;;;;;;;;4179038;28;20515;-35
2022/04/13 03:34:09;;;;;;;0.30;0.20;;;;;;;;;;4178507;28;20060;-34
2022/04/13 03:36:10;;;;;;;0.28;0.10;;;;;;;;;;4179042;28;20106;-33
2022/04/13 03:38:11;;;;;;;0.32;0.15;;;;;;;;;;4178161;28;20056;-37
2022/04/13 03:40:13;;;;;;;0.20;0.20;;;;;;;;;;4178755;28;20079;-37
2022/04/13 03:42:14;;;;;;;0.30;0.20;;;;;;;;;;4178640;28;20371;-33
2022/04/13 03:44:15;;;;;;;0.40;0.20;;;;;;;;;;4178306;28;20057;-37
2022/04/13 03:46:17;;;;;;;0.40;0.20;;;;;;;;;;4177208;28;20060;-36
2022/04/13 03:48:18;;;;;;;0.20;0.10;;;;;;;;;;4178432;28;20460;-38
2022/04/13 03:50:19;;;;;;;0.20;0.10;;;;;;;;;;4178627;28;20111;-35
2022/04/13 03:52:20;;;;;;;0.70;0.20;;;;;;;;;;4178147;28;20495;-33
2022/04/13 03:54:21;;;;;;;0.15;0.10;;;;;;;;;;4176616;28;20165;-34
2022/04/13 03:56:22;;;;;;;0.25;0.10;;;;;;;;;;4178661;28;20060;-33
2022/04/13 03:58:24;;;;;;;0.10;0.10;;;;;;;;;;4178474;28;20148;-36
2022/04/13 04:00:26;;;;;;;1.00;0.20;;;;;;;;;;4176830;28;20057;-37
2022/04/13 04:02:27;;;;;;;0.43;0.20;;;;;;;;;;4178439;28;20083;-37
2022/04/13 04:04:29;;;;;;;0.10;0.10;;;;;;;;;;4168954;28;20049;-36
2022/04/13 04:06:30;;;;;;;0.30;0.20;;;;;;;;;;4164033;28;20103;-35
2022/04/13 04:08:35;;;;;;;0.00;0.00;;;;;;;;;;4163456;28;20061;-35
2022/04/13 04:10:37;;;;;;;0.20;0.10;;;;;;;;;;4163791;28;20508;-34
2022/04/13 04:12:41;;;;;;;0.30;0.20;;;;;;;;;;4163654;28;20091;-34
2022/04/13 04:14:42;;;;;;;0.30;0.20;;;;;;;;;;4162185;28;20069;-38
2022/04/13 04:16:43;;;;;;;0.57;0.17;;;;;;;;;;4163696;28;20558;-33
2022/04/13 04:18:48;;;;;;;0.10;0.10;;;;;;;;;;4163500;28;20103;-33
2022/04/13 04:20:49;;;;;;;0.20;0.10;;;;;;;;;;4163595;28;20053;-36
2022/04/13 04:22:50;;;;;;;0.38;0.22;;;;;;;;;;4163743;28;20183;-32
2022/04/13 04:24:51;;;;;;;1.20;0.20;;;;;;;;;;4163054;28;20057;-33
2022/04/13 04:26:53;;;;;;;0.10;0.10;;;;;;;;;;4163618;28;20501;-35
2022/04/13 04:28:54;;;;;;;0.30;0.17;;;;;;;;;;4163462;28;20057;-36
2022/04/13 04:30:55;;;;;;;0.30;0.30;;;;;;;;;;4163494;28;20053;-34
2022/04/13 04:32:56;;;;;;;0.28;0.10;;;;;;;;;;4175347;28;20053;-33
2022/04/13 04:34:58;;;;;;;0.10;0.10;;;;;;;;;;4179783;28;20488;-35
2022/04/13 04:37:00;;;;;;;0.35;0.20;;;;;;;;;;4179716;28;20056;-34
2022/04/13 04:39:02;;;;;;;0.20;0.10;;;;;;;;;;4178750;28;20052;-39
2022/04/13 04:41:03;;;;;;;0.08;0.08;;;;;;;;;;4179802;28;20057;-34
2022/04/13 04:43:04;;;;;;;0.22;0.13;;;;;;;;;;4178074;28;20053;-33
2022/04/13 04:45:06;;;;;;;0.20;0.20;;;;;;;;;;4179673;28;20062;-34
2022/04/13 04:47:07;;;;;;;0.30;0.10;;;;;;;;;;4178343;28;20408;-35
2022/04/13 04:49:08;;;;;;;0.65;0.35;;;;;;;;;;4179331;28;20099;-34
2022/04/13 04:51:09;;;;;;;0.35;0.15;;;;;;;;;;4179674;28;20523;-36
2022/04/13 04:53:10;;;;;;;0.30;0.15;;;;;;;;;;4179346;28;20094;-35
2022/04/13 04:55:14;;;;;;;0.15;0.15;;;;;;;;;;4179374;28;20071;-36
2022/04/13 04:57:15;;;;;;;0.40;0.20;;;;;;;;;;4179767;28;20052;-36
2022/04/13 04:59:16;;;;;;;0.25;0.15;;;;;;;;;;4179117;28;20106;-35
2022/04/13 05:01:18;;;;;;;0.10;0.00;;;;;;;;;;4175974;28;20550;-35
2022/04/13 05:03:19;;;;;;;0.20;0.10;;;;;;;;;;4177742;28;20048;-38
2022/04/13 05:05:22;;;;;;;0.55;0.13;;;;;;;;;;4177552;28;20562;-36
2022/04/13 05:07:23;;;;;;;0.30;0.15;;;;;;;;;;4177342;28;20561;-35
2022/04/13 05:09:25;;;;;;;1.75;0.30;;;;;;;;;;4177288;28;20052;-35
2022/04/13 05:11:26;;;;;;;1.20;0.40;;;;;;;;;;4177441;28;20122;-34
2022/04/13 05:13:27;;;;;;;0.32;0.20;;;;;;;;;;4177372;28;20087;-34
2022/04/13 05:15:29;;;;;;;0.25;0.20;;;;;;;;;;4177425;28;20056;-36
2022/04/13 05:17:29;;;;;;;0.20;0.13;;;;;;;;;;4177399;28;20106;-34
2022/04/13 05:19:33;;;;;;;0.55;0.43;;;;;;;;;;4177107;28;20497;-36
2022/04/13 05:21:34;;;;;;;0.50;0.30;;;;;;;;;;4177184;28;20052;-33
2022/04/13 05:23:36;;;;;;;0.65;0.22;;;;;;;;;;4176721;28;20049;-37
2022/04/13 05:25:37;;;;;;;0.52;0.40;;;;;;;;;;4176982;28;20052;-33
2022/04/13 05:27:38;;;;;;;0.47;0.20;;;;;;;;;;4177270;28;20408;-36
2022/04/13 05:29:39;;;;;;;0.90;0.30;;;;;;;;;;4175674;28;20496;-34
2022/04/13 05:31:40;;;;;;;0.20;0.20;;;;;;;;;;4177055;28;20110;-36
2022/04/13 05:33:41;;;;;;;0.40;0.32;;;;;;;;;;4177461;28;20049;-33
2022/04/13 05:35:45;;;;;;;0.70;0.30;;;;;;;;;;4175975;28;20590;-34
2022/04/13 05:37:46;;;;;;;0.40;0.25;;;;;;;;;;4176033;28;20453;-35
2022/04/13 05:39:48;;;;;;;0.45;0.30;;;;;;;;;;4176353;28;20409;-34
2022/04/13 05:41:49;;;;;;;0.28;0.20;;;;;;;;;;4175710;28;20049;-34
2022/04/13 05:43:50;;;;;;;0.45;0.20;;;;;;;;;;4175423;28;20329;-34
2022/04/13 05:45:51;;;;;;;0.85;0.30;;;;;;;;;;4176326;28;20509;-37
2022/04/13 05:47:52;;;;;;;1.10;0.60;;;;;;;;;;4177160;28;20064;-33
2022/04/13 05:49:53;;;;;;;1.58;0.40;;;;;;;;;;4177333;28;20441;-35
2022/04/13 05:51:55;;;;;;;0.85;0.30;;;;;;;;;;4180370;28;20106;-36
2022/04/13 05:53:56;;;;;;;0.45;0.20;;;;;;;;;;4179430;28;20057;-36
2022/04/13 05:55:57;;;;;;;0.63;0.35;;;;;;;;;;4179417;28;20044;-33
2022/04/13 05:57:59;;;;;;;0.47;0.30;;;;;;;;;;4184078;28;20110;-36
2022/04/13 06:00:00;;;;;;;4.25;0.40;;;;;;;;;;4184438;28;20059;-33
2022/04/13 06:02:02;;;;;;;4.20;0.40;;;;;;;;;;4184632;28;20059;-33
2022/04/13 06:04:03;;;;;;;1.10;0.40;;;;;;;;;;4182640;28;20102;-30
2022/04/13 06:06:04;;;;;;;1.77;0.38;;;;;;;;;;4185407;28;20102;-31
2022/04/13 06:08:05;;;;;;;0.85;0.35;;;;;;;;;;4184667;28;20459;-32
2022/04/13 06:10:07;;;;;;;1.67;0.47;;;;;;;;;;4184512;28;20086;-33
2022/04/13 06:12:09;;;;;;;0.95;0.30;;;;;;;;;;4185832;28;20755;-32
2022/04/13 06:14:10;;;;;;;2.53;0.50;;;;;;;;;;4185890;28;20056;-33
2022/04/13 06:16:11;;;;;;;1.98;0.52;;;;;;;;;;4183596;28;20402;-34
2022/04/13 06:18:12;;;;;;;2.00;0.47;;;;;;;;;;4185933;28;20053;-39
2022/04/13 06:20:14;;;;;;;1.30;0.47;;;;;;;;;;4179496;28;20096;-33
2022/04/13 06:22:15;;;;;;;0.93;0.40;;;;;;;;;;4172046;28;20091;-36
2022/04/13 06:24:16;;;;;;;1.77;0.40;;;;;;;;;;4171153;28;20186;-33
2022/04/13 06:26:18;;;;;;;1.13;0.30;;;;;;;;;;4173909;28;20103;-38
2022/04/13 06:28:19;;;;;;;2.97;0.77;;;;;;;;;;4172115;28;20056;-39
2022/04/13 06:30:20;;;;;;;0.60;0.30;;;;;;;;;;4179476;28;20057;-36
2022/04/13 06:32:22;;;;;;;5.35;0.50;;;;;;;;;;4170213;28;20052;-39
2022/04/13 06:34:23;;;;;;;2.65;0.60;;;;;;;;;;4178896;28;20049;-35
2022/04/13 06:36:24;;;;;;;2.03;0.40;;;;;;;;;;4180416;28;20487;-37
2022/04/13 06:38:26;;;;;;;2.75;0.40;;;;;;;;;;4178481;28;20057;-34
2022/04/13 06:40:27;;;;;;;2.75;0.80;;;;;;;;;;4175043;28;20068;-38
2022/04/13 06:42:32;;;;;;;1.75;0.45;;;;;;;;;;4173558;28;20122;-36
2022/04/13 06:44:33;;;;;;;5.03;0.50;;;;;;;;;;4182290;28;20091;-36
2022/04/13 06:46:36;;;;;;;2.35;0.50;;;;;;;;;;4173740;28;20103;-36
2022/04/13 06:48:37;;;;;;;3.60;0.73;;;;;;;;;;4170967;28;20063;-39
2022/04/13 06:50:39;;;;;;;2.70;0.60;;;;;;;;;;4178728;28;20061;-37
2022/04/13 06:52:40;;;;;;;1.42;0.50;;;;;;;;;;4181929;28;20053;-34
2022/04/13 06:54:41;;;;;;;1.02;0.30;;;;;;;;;;4159844;28;20053;-35
2022/04/13 06:56:42;;;;;;;0.63;0.35;;;;;;;;;;4176677;28;20508;-35
2022/04/13 06:58:45;;;;;;;1.80;0.65;;;;;;;;;;4179852;28;20073;-37
2022/04/13 07:00:49;;;;;;;2.38;0.40;;;;;;;;;;4175962;28;20065;-34
2022/04/13 07:02:57;;;;;;;1.60;0.40;;;;;;;;;;4173726;28;20099;-37
2022/04/13 07:04:58;;;;;;;3.95;0.65;;;;;;;;;;4174720;28;20135;-38
2022/04/13 07:07:00;;;;;;;1.60;0.60;;;;;;;;;;4177932;28;20485;-34
2022/04/13 07:09:01;;;;;;;1.98;0.50;;;;;;;;;;4173791;28;20052;-35
2022/04/13 07:11:02;;;;;;;2.92;0.50;;;;;;;;;;4179927;28;20053;-38
2022/04/13 07:13:04;;;;;;;3.53;0.60;;;;;;;;;;4178366;28;20497;-37
2022/04/13 07:15:05;;;;;;;1.85;0.77;;;;;;;;;;4177359;28;20061;-36
2022/04/13 07:17:09;;;;;;;0.73;0.40;;;;;;;;;;4176782;28;20068;-36
2022/04/13 07:19:11;;;;;;;1.75;0.50;;;;;;;;;;4177019;28;20056;-37
2022/04/13 07:21:12;;;;;;;1.30;0.50;;;;;;;;;;4173950;28;20048;-34
2022/04/13 07:23:13;;;;;;;4.63;0.47;;;;;;;;;;4177481;28;20053;-38
2022/04/13 07:25:15;;;;;;;3.05;0.73;;;;;;;;;;4182720;28;20098;-38
2022/04/13 07:27:17;;;;;;;1.52;0.47;;;;;;;;;;4179893;28;20512;-37
2022/04/13 07:29:18;;;;;;;1.17;0.40;;;;;;;;;;4173757;28;20054;-40
2022/04/13 07:31:19;;;;;;;0.82;0.30;;;;;;;;;;4177628;28;20854;-33
2022/04/13 07:33:21;;;;;;;1.75;0.43;;;;;;;;;;4172838;28;20509;-34
2022/04/13 07:35:22;;;;;;;1.98;0.60;;;;;;;;;;4172527;28;20053;-38
2022/04/13 07:37:23;;;;;;;3.55;0.55;;;;;;;;;;4176077;28;20049;-36
2022/04/13 07:39:24;;;;;;;1.45;0.40;;;;;;;;;;4175031;28;20053;-39
2022/04/13 07:41:25;;;;;;;1.83;0.50;;;;;;;;;;4180060;28;20053;-39
2022/04/13 07:43:26;;;;;;;1.13;0.57;;;;;;;;;;4175958;28;20421;-39
2022/04/13 07:45:28;;;;;;;1.08;0.40;;;;;;;;;;4178388;28;20049;-37
2022/04/13 07:47:29;;;;;;;2.40;0.50;;;;;;;;;;4175631;28;20126;-37
2022/04/13 07:49:30;;;;;;;1.73;0.50;;;;;;;;;;4174835;28;20728;-38
2022/04/13 07:51:32;;;;;;;0.65;0.38;;;;;;;;;;4172829;28;20053;-35
2022/04/13 07:53:34;;;;;;;1.45;0.45;;;;;;;;;;4176937;28;20092;-35
2022/04/13 07:55:35;;;;;;;0.45;0.30;;;;;;;;;;4178909;28;20578;-37
2022/04/13 07:57:37;;;;;;;0.65;0.50;;;;;;;;;;4177882;28;20057;-35
2022/04/13 07:59:40;;;;;;;1.73;0.52;;;;;;;;;;4181756;28;20106;-37
2022/04/13 08:01:41;;;;;;;2.25;0.70;;;;;;;;;;4173199;28;20118;-37
2022/04/13 08:03:43;;;;;;;1.48;0.38;;;;;;;;;;4179631;28;20044;-37
2022/04/13 08:05:45;;;;;;;1.40;0.57;;;;;;;;;;4181911;28;20060;-37
2022/04/13 08:07:47;;;;;;;2.20;0.40;;;;;;;;;;4169380;28;20508;-33
2022/04/13 08:09:49;;;;;;;1.20;0.30;;;;;;;;;;4173454;28;20052;-39
2022/04/13 08:11:52;;;;;;;0.70;0.30;;;;;;;;;;4172366;28;20519;-38
2022/04/13 08:13:53;;;;;;;0.90;0.50;;;;;;;;;;4170700;28;20182;-36
2022/04/13 08:15:54;;;;;;;0.50;0.30;;;;;;;;;;4175569;28;20082;-33
2022/04/13 08:17:56;;;;;;;1.73;0.32;;;;;;;;;;4170506;28;20057;-34
2022/04/13 08:19:57;;;;;;;0.85;0.30;;;;;;;;;;4178056;28;20405;-37
2022/04/13 08:21:58;;;;;;;1.10;0.32;;;;;;;;;;4179065;28;20495;-38
2022/04/13 08:23:59;;;;;;;1.95;0.20;;;;;;;;;;4170980;28;20055;-38
2022/04/13 08:26:01;;;;;;;2.47;0.30;;;;;;;;;;4179656;28;20057;-36
2022/04/13 08:28:02;;;;;;;0.57;0.20;;;;;;;;;;4178986;28;20105;-37
2022/04/13 08:30:03;;;;;;;0.47;0.30;;;;;;;;;;4160605;28;20049;-39
2022/04/13 08:32:05;;;;;;;1.52;0.40;;;;;;;;;;4156495;28;20053;-34
2022/04/13 08:34:06;;;;;;;0.63;0.30;;;;;;;;;;4161121;28;20057;-38
2022/04/13 08:36:08;;;;;;;0.70;0.30;;;;;;;;;;4163778;28;20065;-38
2022/04/13 08:38:09;;;;;;;2.17;0.30;;;;;;;;;;4169467;28;20103;-37
2022/04/13 08:40:11;;;;;;;1.92;0.30;;;;;;;;;;4160632;28;20346;-40
2022/04/13 08:42:14;;;;;;;1.13;0.30;;;;;;;;;;4161483;28;20441;-40
2022/04/13 08:44:22;;;;;;;1.25;0.30;;;;;;;;;;4160455;28;20056;-35
2022/04/13 08:46:24;;;;;;;2.50;0.20;;;;;;;;;;4158175;28;20053;-35
2022/04/13 08:48:27;;;;;;;2.10;0.30;;;;;;;;;;4162614;28;20509;-37
2022/04/13 08:50:30;;;;;;;1.25;0.40;;;;;;;;;;4159249;28;20103;-39
2022/04/13 08:52:33;;;;;;;0.90;0.30;;;;;;;;;;4162702;28;20068;-34
2022/04/13 08:55:03;;;;;;;0.45;0.20;;;;;;;;;;4165887;28;20052;-36
2022/04/13 08:57:08;;;;;;;0.32;0.13;;;;;;;;;;4175159;28;20057;-33
2022/04/13 08:59:22;;;;;;;1.67;0.60;;;;;;;;;;4180162;28;20128;-37
2022/04/13 09:01:31;;;;;;;0.50;0.20;;;;;;;;;;4174969;28;20048;-36
2022/04/13 09:03:43;;;;;;;1.40;0.35;;;;;;;;;;4173858;28;20599;-37
2022/04/13 09:05:46;;;;;;;1.20;0.32;;;;;;;;;;4180389;28;20549;-37
2022/04/13 09:08:11;;;;;;;0.98;0.30;;;;;;;;;;4174542;28;20480;-35
2022/04/13 09:10:18;;;;;;;0.95;0.28;;;;;;;;;;4155637;28;20045;-39
2022/04/13 09:12:20;;;;;;;1.30;0.30;;;;;;;;;;4181814;28;20064;-39
2022/04/13 09:14:21;;;;;;;0.38;0.28;;;;;;;;;;4174663;28;20044;-39
2022/04/13 09:16:22;;;;;;;0.50;0.20;;;;;;;;;;4180217;28;20097;-37
2022/04/13 09:18:24;;;;;;;1.77;0.32;;;;;;;;;;4177468;28;20044;-34
2022/04/13 09:20:25;;;;;;;1.23;0.30;;;;;;;;;;4184511;28;20539;-37
2022/04/13 09:22:29;;;;;;;0.70;0.20;;;;;;;;;;4177924;28;20087;-34
2022/04/13 09:24:31;;;;;;;1.15;0.20;;;;;;;;;;4185335;28;20049;-38
2022/04/13 09:26:33;;;;;;;0.93;0.28;;;;;;;;;;4183006;28;20411;-39
2022/04/13 09:28:34;;;;;;;0.43;0.30;;;;;;;;;;4180340;28;20049;-37
2022/04/13 09:30:35;;;;;;;0.63;0.30;;;;;;;;;;4188722;28;20053;-37
2022/04/13 09:32:36;;;;;;;0.70;0.30;;;;;;;;;;4186450;28;20060;-34
2022/04/13 09:34:37;;;;;;;0.40;0.17;;;;;;;;;;4185647;28;20452;-35
2022/04/13 09:36:38;;;;;;;0.35;0.13;;;;;;;;;;4187489;28;20071;-33
2022/04/13 09:38:39;;;;;;;1.17;0.40;;;;;;;;;;4180431;28;20079;-36
2022/04/13 09:40:42;;;;;;;0.55;0.20;;;;;;;;;;4183056;28;20114;-34
2022/04/13 09:42:44;;;;;;;0.20;0.10;;;;;;;;;;4180725;28;20107;-36
2022/04/13 09:44:53;;;;;;;0.55;0.28;;;;;;;;;;4176671;28;20099;-39
2022/04/13 09:47:10;;;;;;;1.88;0.17;;;;;;;;;;4186507;28;20044;-36
2022/04/13 09:49:16;;;;;;;0.47;0.17;;;;;;;;;;4182032;28;20102;-36
2022/04/13 09:51:17;;;;;;;0.50;0.20;;;;;;;;;;4183640;28;20484;-37
2022/04/13 09:53:20;;;;;;;0.40;0.20;;;;;;;;;;4180761;28;20429;-39
2022/04/13 09:55:22;;;;;;;0.52;0.38;;;;;;;;;;4181129;28;20536;-38
2022/04/13 09:57:24;;;;;;;0.73;0.30;;;;;;;;;;4182825;28;20060;-38
2022/04/13 09:59:29;;;;;;;0.52;0.20;;;;;;;;;;4180923;28;20045;-38
2022/04/13 10:01:34;;;;;;;0.75;0.20;;;;;;;;;;4169778;28;20432;-34
2022/04/13 10:03:52;;;;;;;0.75;0.10;;;;;;;;;;4165089;28;20057;-39
2022/04/13 10:05:55;;;;;;;1.17;0.28;;;;;;;;;;4180217;28;20401;-34
2022/04/13 10:08:04;;;;;;;0.73;0.20;;;;;;;;;;4178999;28;20467;-33
2022/04/13 10:10:22;;;;;;;0.47;0.30;;;;;;;;;;4178145;28;20057;-37
2022/04/13 10:12:23;;;;;;;0.65;0.20;;;;;;;;;;4167343;28;20057;-38
2022/04/13 10:14:24;;;;;;;0.55;0.20;;;;;;;;;;4161053;28;20445;-36
2022/04/13 10:16:31;;;;;;;1.63;0.20;;;;;;;;;;4170224;28;20121;-33
2022/04/13 10:18:52;;;;;;;0.68;0.38;;;;;;;;;;4172838;28;20053;-35
2022/04/13 10:20:53;;;;;;;0.40;0.28;;;;;;;;;;4171369;28;20420;-32
2022/04/13 10:22:59;;;;;;;1.45;0.77;;;;;;;;;;4164983;28;20053;-34
2022/04/13 10:25:29;;;;;;;3.03;0.32;;;;;;;;;;4167821;28;20122;-34
2022/04/13 10:27:30;;;;;;;0.38;0.17;;;;;;;;;;4160081;28;20053;-33
2022/04/13 10:29:33;;;;;;;1.77;0.20;;;;;;;;;;4164956;28;20448;-34
2022/04/13 10:31:34;;;;;;;0.70;0.20;;;;;;;;;;4169005;28;20053;-33
2022/04/13 10:33:48;;;;;;;0.17;0.10;;;;;;;;;;4167232;28;20050;-33
2022/04/13 10:35:49;;;;;;;1.95;0.20;;;;;;;;;;4169288;28;20060;-35
2022/04/13 10:37:51;;;;;;;0.10;0.10;;;;;;;;;;4167110;28;20072;-38
2022/04/13 10:39:53;;;;;;;0.30;0.20;;;;;;;;;;4167323;28;20095;-32
2022/04/13 10:41:54;;;;;;;0.40;0.15;;;;;;;;;;4164485;28;20613;-38
2022/04/13 10:43:57;;;;;;;0.10;0.03;;;;;;;;;;4168290;28;21138;-38
2022/04/13 10:45:59;;;;;;;0.20;0.10;;;;;;;;;;4161666;28;20057;-34
2022/04/13 10:48:05;;;;;;;2.08;0.25;;;;;;;;;;4166339;28;20045;-35
2022/04/13 10:50:07;;;;;;;0.50;0.20;;;;;;;;;;4172310;28;20053;-33
2022/04/13 10:52:13;;;;;;;0.20;0.20;;;;;;;;;;4169501;28;20122;-38
2022/04/13 10:54:17;;;;;;;0.10;0.10;;;;;;;;;;4165160;28;20434;-38
2022/04/13 10:56:20;;;;;;;0.20;0.20;;;;;;;;;;4169263;28;20488;-34
2022/04/13 10:58:33;;;;;;;0.20;0.20;;;;;;;;;;4167048;28;20099;-36
2022/04/13 11:00:36;;;;;;;0.25;0.20;;;;;;;;;;4174257;28;20056;-36
2022/04/13 11:02:57;;;;;;;0.57;0.20;;;;;;;;;;4171378;28;20190;-37
2022/04/13 11:04:58;;;;;;;0.47;0.22;;;;;;;;;;4170405;28;20053;-34
2022/04/13 11:07:01;;;;;;;0.40;0.20;;;;;;;;;;4179533;28;20147;-33
2022/04/13 11:09:12;;;;;;;0.30;0.20;;;;;;;;;;4170901;28;20444;-32
2022/04/13 11:11:18;;;;;;;0.20;0.20;;;;;;;;;;4172654;28;20492;-34
2022/04/13 11:13:19;;;;;;;0.38;0.20;;;;;;;;;;4167451;28;20476;-32
2022/04/13 11:15:43;;;;;;;0.77;0.20;;;;;;;;;;4177085;28;20049;-37
2022/04/13 11:17:44;;;;;;;1.98;0.28;;;;;;;;;;4179309;28;20049;-32
2022/04/13 11:19:47;;;;;;;0.47;0.10;;;;;;;;;;4167713;28;20061;-35
2022/04/13 11:21:51;;;;;;;1.33;0.22;;;;;;;;;;4173411;28;20053;-35
2022/04/13 11:23:54;;;;;;;1.20;0.28;;;;;;;;;;4168428;28;20057;-39
2022/04/13 11:25:58;;;;;;;0.10;0.10;;;;;;;;;;4169898;28;20413;-36
2022/04/13 11:27:59;;;;;;;0.90;0.20;;;;;;;;;;4169098;28;20103;-33
2022/04/13 11:30:02;;;;;;;0.38;0.22;;;;;;;;;;4161063;28;20083;-33
2022/04/13 11:32:04;;;;;;;0.32;0.25;;;;;;;;;;4167855;28;20553;-33
2022/04/13 11:34:06;;;;;;;0.17;0.17;;;;;;;;;;4170343;28;20091;-33
2022/04/13 11:36:07;;;;;;;0.85;0.20;;;;;;;;;;4170300;28;20053;-32
2022/04/13 11:38:09;;;;;;;0.50;0.20;;;;;;;;;;4173315;28;20119;-36
2022/04/13 11:40:12;;;;;;;0.20;0.17;;;;;;;;;;4171965;28;20072;-35
2022/04/13 11:42:20;;;;;;;0.35;0.10;;;;;;;;;;4174690;28;20061;-33
2022/04/13 11:44:21;;;;;;;0.90;0.20;;;;;;;;;;4174494;28;20557;-32
2022/04/13 11:46:39;;;;;;;0.43;0.20;;;;;;;;;;4171137;28;20087;-34
2022/04/13 11:48:40;;;;;;;0.20;0.10;;;;;;;;;;4173295;28;20068;-33
2022/04/13 11:50:41;;;;;;;0.40;0.15;;;;;;;;;;4166578;28;20136;-31
2022/04/13 11:53:13;;;;;;;0.10;0.10;;;;;;;;;;4174192;28;20049;-34
2022/04/13 11:55:18;;;;;;;0.10;0.10;;;;;;;;;;4173052;28;20107;-32
2022/04/13 11:57:19;;;;;;;0.30;0.20;;;;;;;;;;4175083;28;20106;-34
2022/04/13 11:59:46;;;;;;;0.10;0.00;;;;;;;;;;4172228;28;20382;-32
2022/04/13 12:01:54;;;;;;;0.20;0.10;;;;;;;;;;4175224;28;20053;-31
2022/04/13 12:03:56;;;;;;;0.17;0.10;;;;;;;;;;4181507;28;20053;-35
2022/04/13 12:06:15;;;;;;;0.35;0.20;;;;;;;;;;4165990;28;20049;-33
2022/04/13 12:08:21;;;;;;;0.30;0.20;;;;;;;;;;4168656;28;20111;-32
2022/04/13 12:10:24;;;;;;;0.25;0.15;;;;;;;;;;4174905;28;20429;-39
2022/04/13 12:12:28;;;;;;;0.30;0.20;;;;;;;;;;4183209;28;20075;-36
2022/04/13 12:14:36;;;;;;;0.30;0.20;;;;;;;;;;4175306;28;20136;-35
2022/04/13 12:16:41;;;;;;;0.40;0.10;;;;;;;;;;4167463;28;20053;-34